Time;durP1;ratioP1;P1;durP2;ratioP2;P2;SDS_P1;SDS_P2;PMS_P1;PMS_P2;Temp;Humidity;BMP_temperature;BMP_pressure;BME280_temperature;BME280_humidity;BME280_pressure;Samples;Min_cycle;Max_cycle;Signal;HPM_P1;HPM_P2
2022/02/02 00:00:19;;;;;;;;;30.25;24.75;;;;;22.21;46.17;101494.41;5060487;28;48367;-86
2022/02/02 00:02:49;;;;;;;;;24.50;23.00;;;;;22.20;45.99;101482.91;5056209;28;45353;-87
2022/02/02 00:08:05;;;;;;;;;28.00;23.50;;;;;22.18;45.98;101473.22;5080461;28;45291;-86
2022/02/02 00:13:03;;;;;;;;;28.75;25.50;;;;;22.18;45.99;101475.88;5063482;28;45283;-85
2022/02/02 00:20:49;;;;;;;;;27.25;24.50;;;;;22.17;46.03;101483.00;5052505;28;45454;-86
2022/02/02 00:23:18;;;;;;;;;27.50;25.00;;;;;22.16;46.10;101485.69;5064840;28;45225;-85
2022/02/02 00:25:51;;;;;;;;;22.25;19.25;;;;;22.16;45.95;101469.75;5059723;28;45339;-85
2022/02/02 00:28:20;;;;;;;;;24.50;18.75;;;;;22.16;46.16;101467.09;5063113;28;45557;-85
2022/02/02 00:30:45;;;;;;;;;26.50;23.00;;;;;22.14;46.21;101467.09;5062954;28;47910;-86
2022/02/02 00:33:22;;;;;;;;;24.00;21.25;;;;;22.15;46.31;101462.66;5045803;28;45774;-85
2022/02/02 00:35:59;;;;;;;;;22.50;19.25;;;;;22.12;46.30;101463.63;5064385;28;45492;-86
2022/02/02 00:38:24;;;;;;;;;21.50;18.50;;;;;22.13;46.50;101468.03;5064108;28;45240;-87
2022/02/02 00:40:49;;;;;;;;;22.50;22.00;;;;;22.13;45.90;101468.03;5062601;28;45709;-87
2022/02/02 00:43:15;;;;;;;;;25.25;22.50;;;;;22.12;46.06;101476.91;5062478;28;53017;-87
2022/02/02 00:45:45;;;;;;;;;23.00;20.75;;;;;22.14;46.49;101479.53;5062155;28;54494;-86
2022/02/02 00:48:11;;;;;;;;;26.25;20.50;;;;;22.12;46.31;101478.69;5055663;28;45491;-86
2022/02/02 00:50:37;;;;;;;;;23.75;19.75;;;;;22.14;46.55;101479.53;5025548;28;47350;-85
2022/02/02 00:53:02;;;;;;;;;31.75;28.25;;;;;22.13;46.45;101481.31;5033274;28;45235;-86
2022/02/02 00:55:28;;;;;;;;;24.75;23.00;;;;;22.14;46.30;101490.16;5059189;28;53408;-87
2022/02/02 00:57:53;;;;;;;;;22.75;19.25;;;;;22.13;45.97;101483.09;5059373;27;45900;-87
2022/02/02 01:00:18;;;;;;;;;26.75;20.00;;;;;22.13;46.17;101491.94;5073025;28;59697;-86
2022/02/02 01:02:44;;;;;;;;;26.25;21.00;;;;;22.13;46.33;101496.41;5025731;28;45336;-86
2022/02/02 01:05:09;;;;;;;;;21.25;20.50;;;;;22.13;46.02;101491.06;5039178;28;45468;-86
2022/02/02 01:10:17;;;;;;;;;24.50;21.75;;;;;22.10;45.95;101486.72;5050927;28;45337;-86
2022/02/02 01:28:31;;;;;;;;;20.75;19.75;;;;;22.10;46.17;101491.16;5059349;28;45354;-86
2022/02/02 01:30:59;;;;;;;;;28.25;22.75;;;;;22.08;46.59;101482.38;5058428;28;47016;-87
2022/02/02 01:33:24;;;;;;;;;25.00;20.50;;;;;22.08;46.40;101488.56;5045427;28;45378;-87
2022/02/02 01:35:50;;;;;;;;;20.75;17.50;;;;;22.07;46.06;101481.50;5025497;28;45386;-87
2022/02/02 01:38:16;;;;;;;;;24.50;20.00;;;;;22.09;46.42;101489.44;5065131;28;45274;-88
2022/02/02 01:40:49;;;;;;;;;21.75;18.50;;;;;22.07;46.41;101489.47;5041897;28;47370;-87
2022/02/02 01:43:23;;;;;;;;;27.00;22.75;;;;;22.08;46.29;101495.66;5050890;28;45853;-87
2022/02/02 01:45:53;;;;;;;;;22.00;19.50;;;;;22.07;46.54;101488.56;5047482;28;45338;-87
2022/02/02 01:54:15;;;;;;;;;24.25;17.50;;;;;22.07;46.49;101499.22;5033291;28;45528;-87
2022/02/02 01:56:40;;;;;;;;;21.75;20.75;;;;;22.06;46.57;101502.75;5064051;28;45274;-88
2022/02/02 02:01:34;;;;;;;;;20.25;16.75;;;;;22.07;46.27;101496.53;5070262;28;45981;-88
2022/02/02 02:03:59;;;;;;;;;19.50;18.25;;;;;22.06;46.42;101492.13;5061145;28;58918;-88
2022/02/02 02:06:25;;;;;;;;;17.75;17.75;;;;;22.06;46.58;101492.13;5045196;28;45437;-87
2022/02/02 02:08:50;;;;;;;;;21.00;18.00;;;;;22.06;46.01;101500.09;5048211;28;45560;-88
2022/02/02 02:11:19;;;;;;;;;20.50;18.75;;;;;22.06;45.73;101503.63;5043648;28;45460;-87
2022/02/02 02:16:28;;;;;;;;;19.00;15.75;;;;;22.05;46.62;101504.53;5071305;28;45402;-87
2022/02/02 02:18:54;;;;;;;;;21.25;19.25;;;;;22.05;46.50;101504.53;5041366;28;50131;-87
2022/02/02 02:21:19;;;;;;;;;22.00;17.25;;;;;22.03;46.04;101495.75;5037333;28;46843;-86
2022/02/02 02:23:46;;;;;;;;;21.50;19.50;;;;;22.06;45.89;101494.78;5028416;28;45235;-88
2022/02/02 02:26:20;;;;;;;;;23.25;20.75;;;;;22.04;46.38;101496.59;5039109;28;45402;-88
2022/02/02 02:31:28;;;;;;;;;24.50;20.50;;;;;22.04;46.24;101496.59;5041183;28;45472;-88
2022/02/02 03:29:52;;;;;;;;;21.25;19.25;;;;;21.99;46.06;101492.28;5061377;28;45375;-87
2022/02/02 03:31:02;;;;;;;;;17.50;14.75;;;;;21.99;46.43;101500.28;5071465;28;45352;-87
2022/02/02 03:57:30;;;;;;;;;17.00;14.75;;;;;21.96;46.21;101505.66;5064493;28;46166;-86
2022/02/02 04:07:54;;;;;;;;;16.75;14.50;;;;;21.97;46.48;101510.03;5056807;28;45247;-88
2022/02/02 04:10:20;;;;;;;;;21.25;15.50;;;;;21.96;46.50;101510.97;5060903;28;45466;-90
2022/02/02 04:13:07;;;;;;;;;13.75;12.25;;;;;21.97;46.20;101515.38;5063571;27;45390;-88
2022/02/02 04:37:41;;;;;;;;;17.00;15.25;;;;;21.97;46.70;101522.47;5065748;28;45239;-88
2022/02/02 05:05:14;;;;;;;;;15.00;14.00;;;;;21.97;46.00;101501.19;5044459;28;45498;-89
2022/02/02 05:07:30;;;;;;;;;16.00;12.25;;;;;21.98;46.36;101502.97;5063203;28;45246;-89
2022/02/02 05:49:59;;;;;;;;;10.25;8.25;;;;;22.09;46.05;101534.63;5064427;28;45224;-89
2022/02/02 05:52:25;;;;;;;;;12.75;11.25;;;;;22.08;45.98;101532.88;5065702;28;45264;-86
2022/02/02 05:54:53;;;;;;;;;10.25;9.00;;;;;22.07;46.15;101534.66;5062180;28;49057;-87
2022/02/02 05:57:19;;;;;;;;;13.50;11.50;;;;;22.10;46.40;101537.25;5062327;28;58707;-83
2022/02/02 05:59:44;;;;;;;;;10.00;9.00;;;;;22.14;46.63;101551.31;5047117;28;59741;-77
2022/02/02 06:02:21;;;;;;;;;13.50;11.00;;;;;22.17;47.37;101553.91;5061571;28;45375;-78
2022/02/02 06:04:47;;;;;;;;;12.25;9.50;;;;;22.21;47.33;101553.78;5044304;28;47447;-81
2022/02/02 06:07:16;;;;;;;;;10.00;9.50;;;;;22.27;46.96;101550.09;5072693;27;45691;-79
2022/02/02 06:09:48;;;;;;;;;14.00;10.75;;;;;22.45;47.00;101549.59;5055791;28;45375;-86
2022/02/02 06:12:18;;;;;;;;;11.00;10.00;;;;;22.73;46.77;101554.16;5049508;28;45269;-78
2022/02/02 06:14:44;;;;;;;;;13.75;12.25;;;;;23.01;46.19;101548.94;5049018;28;47498;-90
2022/02/02 06:17:09;;;;;;;;;16.25;13.75;;;;;23.26;45.53;101549.94;5069199;28;45357;-82
2022/02/02 06:19:35;;;;;;;;;15.00;11.00;;;;;23.41;45.43;101544.16;5061657;28;45339;-88
2022/02/02 06:22:03;;;;;;;;;16.25;13.75;;;;;23.52;45.14;101557.13;5059857;28;45768;-77
2022/02/02 06:24:45;;;;;;;;;16.00;12.75;;;;;23.55;45.35;101554.38;5075020;28;45538;-77
2022/02/02 06:27:11;;;;;;;;;10.25;10.25;;;;;23.56;45.65;101556.13;5082920;27;45394;-81
2022/02/02 06:29:41;;;;;;;;;14.75;12.00;;;;;23.52;45.92;101549.13;5082841;27;45290;-81
2022/02/02 06:32:11;;;;;;;;;12.25;11.50;;;;;23.51;45.85;101559.84;5081800;28;45418;-80
2022/02/02 06:34:37;;;;;;;;;15.00;11.00;;;;;23.47;46.04;101559.09;5081527;28;46404;-83
2022/02/02 06:37:02;;;;;;;;;13.25;12.00;;;;;23.42;45.86;101569.00;5044136;28;55462;-79
2022/02/02 06:39:31;;;;;;;;;15.25;13.75;;;;;23.35;45.78;101562.97;5059827;28;45474;-80
2022/02/02 06:41:56;;;;;;;;;13.75;13.00;;;;;23.31;45.54;101566.69;5044796;28;45560;-79
2022/02/02 06:44:24;;;;;;;;;12.25;11.25;;;;;23.25;45.68;101558.84;5043101;28;48085;-78
2022/02/02 06:46:50;;;;;;;;;14.25;12.50;;;;;23.17;45.59;101560.88;5060962;28;45811;-76
2022/02/02 06:49:16;;;;;;;;;11.50;10.75;;;;;23.18;45.70;101569.75;5076778;28;45448;-78
2022/02/02 06:51:52;;;;;;;;;13.25;10.75;;;;;23.12;46.10;101574.34;5082735;28;45468;-80
2022/02/02 06:54:27;;;;;;;;;11.00;10.50;;;;;23.06;46.15;101569.19;5050363;28;47123;-81
2022/02/02 06:57:02;;;;;;;;;8.75;8.75;;;;;23.02;45.63;101585.28;5081543;28;45258;-79
2022/02/02 07:00:07;;;;;;;;;12.50;10.00;;;;;23.03;46.61;101584.41;5065577;28;45263;-78
2022/02/02 07:10:39;;;;;;;;;20.00;13.00;;;;;22.93;46.60;101601.53;5066458;28;45499;-85
2022/02/02 07:13:54;;;;;;;;;13.50;9.50;;;;;22.86;46.78;101600.84;5047631;28;45762;-86
2022/02/02 07:16:11;;;;;;;;;17.25;13.50;;;;;22.79;46.25;101599.25;5040307;28;46810;-85
2022/02/02 07:18:51;;;;;;;;;15.75;9.75;;;;;22.76;46.78;101599.28;5050093;28;45285;-84
2022/02/02 07:26:46;;;;;;;;;18.50;14.50;;;;;22.68;46.35;101590.69;5065701;28;46035;-82
2022/02/02 07:32:08;;;;;;;;;10.50;9.25;;;;;22.75;46.87;101618.84;5080919;28;45449;-86
2022/02/02 07:34:57;;;;;;;;;10.75;10.00;;;;;22.68;46.99;101607.53;5045482;28;45605;-78
2022/02/02 07:37:37;;;;;;;;;13.75;11.00;;;;;22.63;46.51;101603.22;5065007;28;46353;-78
2022/02/02 07:40:05;;;;;;;;;10.25;10.00;;;;;22.65;46.98;101614.69;5060399;28;45287;-80
2022/02/02 07:42:31;;;;;;;;;9.75;9.25;;;;;22.63;47.02;101613.88;5077546;28;45189;-87
2022/02/02 07:45:01;;;;;;;;;12.75;9.50;;;;;22.59;46.52;101613.09;5035558;28;45637;-87
2022/02/02 07:47:27;;;;;;;;;3.25;1.50;;;;;22.57;47.02;101618.44;5073971;27;46425;-87
2022/02/02 07:49:54;;;;;;;;;10.25;9.50;;;;;22.61;46.87;101631.66;5061183;28;45663;-89
2022/02/02 07:52:20;;;;;;;;;11.25;9.25;;;;;22.54;46.58;101621.19;5066389;28;45766;-89
2022/02/02 07:54:47;;;;;;;;;8.00;8.00;;;;;22.58;46.61;101630.81;5067981;28;45232;-81
2022/02/02 07:57:15;;;;;;;;;11.00;9.50;;;;;22.65;46.79;101643.97;5080018;28;45536;-82
2022/02/02 07:59:53;;;;;;;;;10.25;6.25;;;;;22.61;46.62;101634.34;5043251;28;45379;-86
2022/02/02 08:02:22;;;;;;;;;8.75;8.75;;;;;22.66;46.32;101643.03;5059951;28;45475;-86
2022/02/02 08:04:48;;;;;;;;;11.50;9.00;;;;;22.57;46.61;101615.75;5053789;28;45536;-87
2022/02/02 08:07:21;;;;;;;;;10.00;9.00;;;;;22.56;47.00;101616.69;5039797;28;48627;-87
2022/02/02 08:09:55;;;;;;;;;12.00;11.00;;;;;22.54;46.62;101615.84;5052744;28;45796;-82
2022/02/02 08:12:21;;;;;;;;;8.00;8.00;;;;;22.51;46.62;101617.75;5064036;28;45329;-87
2022/02/02 08:14:54;;;;;;;;;11.25;8.50;;;;;22.56;46.18;101630.00;5062755;27;45558;-80
2022/02/02 08:17:22;;;;;;;;;10.25;10.25;;;;;22.56;46.48;101627.31;5066852;28;47191;-78
2022/02/02 08:19:51;;;;;;;;;8.50;8.50;;;;;22.56;46.42;101631.78;5079549;27;45629;-80
2022/02/02 08:22:17;;;;;;;;;11.00;9.25;;;;;22.59;47.12;101645.03;5080235;28;45460;-80
2022/02/02 08:24:42;;;;;;;;;10.75;8.50;;;;;22.53;46.22;101624.75;5045695;28;45556;-79
2022/02/02 08:27:08;;;;;;;;;10.75;9.00;;;;;22.57;46.24;101639.72;5080817;28;45793;-80
2022/02/02 08:29:33;;;;;;;;;10.00;6.75;;;;;22.52;46.74;101649.63;5080863;27;45285;-79
2022/02/02 08:32:00;;;;;;;;;7.00;7.00;;;;;22.55;46.28;101638.00;5080595;27;45429;-80
2022/02/02 08:34:26;;;;;;;;;12.00;10.25;;;;;22.63;46.80;101659.97;5062581;27;45659;-81
2022/02/02 08:36:54;;;;;;;;;7.50;7.00;;;;;22.61;46.38;101653.81;5080801;27;45261;-83
2022/02/02 08:41:52;;;;;;;;;10.00;7.75;;;;;22.60;46.29;101651.22;5081087;27;45702;-75
2022/02/02 08:44:23;;;;;;;;;9.25;8.00;;;;;22.63;46.52;101656.44;5078948;28;45586;-82
2022/02/02 08:46:58;;;;;;;;;8.50;8.00;;;;;22.61;45.99;101653.81;5079544;28;46200;-83
2022/02/02 08:49:26;;;;;;;;;9.75;8.00;;;;;22.61;46.58;101656.50;5069643;27;45832;-83
2022/02/02 08:55:00;;;;;;;;;10.50;9.00;;;;;22.55;46.27;101648.66;5063945;28;46351;-82
2022/02/02 08:58:08;;;;;;;;;;;;;;;;;;;;;
2022/02/02 09:00:37;;;;;;;;;8.75;7.00;;;;;22.53;46.15;101655.81;5062715;28;45267;-82
2022/02/02 09:06:06;;;;;;;;;7.00;6.25;;;;;22.45;46.18;101631.19;5065039;28;45631;-79
2022/02/02 09:08:33;;;;;;;;;9.00;6.00;;;;;22.50;44.80;101639.91;5060058;28;45827;-73
2022/02/02 09:35:54;;;;;;;;;4.75;3.50;;;;;21.73;43.93;101641.75;5065829;28;45357;-73
2022/02/02 09:38:20;;;;;;;;;7.25;5.00;;;;;21.72;43.94;101647.13;5078674;28;45625;-73
2022/02/02 09:43:17;;;;;;;;;4.25;3.75;;;;;21.65;43.63;101648.16;5066602;28;45229;-75
2022/02/02 09:45:54;;;;;;;;;5.00;5.00;;;;;21.68;43.42;101653.38;5082274;28;45444;-72
2022/02/02 09:48:28;;;;;;;;;4.00;4.00;;;;;21.60;43.48;101645.56;5061696;28;45490;-72
2022/02/02 09:51:00;;;;;;;;;4.25;4.25;;;;;21.59;43.83;101653.59;5077951;28;45452;-71
2022/02/02 10:04:18;;;;;;;;;5.75;4.00;;;;;21.39;43.83;101662.00;5081781;28;45279;-72
2022/02/02 10:14:25;;;;;;;;;3.25;3.25;;;;;21.29;43.86;101676.38;5068728;28;45213;-71
2022/02/02 10:16:50;;;;;;;;;4.25;4.00;;;;;21.27;43.81;101668.41;5082648;27;45371;-72
2022/02/02 10:19:19;;;;;;;;;4.50;3.50;;;;;21.26;43.79;101666.63;5060349;28;45541;-72
2022/02/02 10:21:45;;;;;;;;;5.25;2.50;;;;;21.25;43.79;101664.00;5078000;28;47076;-72
2022/02/02 10:24:10;;;;;;;;;9.75;5.00;;;;;21.28;44.90;101664.84;5064741;28;45493;-77
2022/02/02 10:27:05;;;;;;;;;8.00;5.00;;;;;21.32;45.21;101650.63;5047752;28;45378;-78
2022/02/02 10:30:03;;;;;;;;;5.25;5.00;;;;;21.56;45.47;101666.94;5062153;28;45448;-76
2022/02/02 10:32:40;;;;;;;;;9.25;8.00;;;;;21.67;45.10;101684.41;5070297;27;46246;-74
2022/02/02 10:35:07;;;;;;;;;10.75;6.25;;;;;21.76;47.75;101683.31;5052293;28;45334;-75
2022/02/02 10:37:34;;;;;;;;;9.50;8.50;;;;;21.80;49.67;101685.00;5064785;28;45349;-76
2022/02/02 10:40:03;;;;;;;;;7.00;7.00;;;;;21.90;51.46;101686.56;5064402;28;45434;-76
2022/02/02 10:42:41;;;;;;;;;8.00;5.75;;;;;21.92;49.58;101670.56;5063641;27;45484;-78
2022/02/02 10:46:07;;;;;;;;;6.25;5.25;;;;;21.99;48.56;101681.03;5080328;28;45281;-74
2022/02/02 10:48:39;;;;;;;;;5.25;4.75;;;;;22.07;48.61;101682.63;5064295;27;45571;-77
2022/02/02 10:51:16;;;;;;;;;8.00;7.00;;;;;22.17;49.33;101692.19;5064858;28;45438;-78
2022/02/02 10:59:35;;;;;;;;;7.00;5.50;;;;;22.32;50.50;101697.09;5059210;28;45434;-73
2022/02/02 11:07:16;;;;;;;;;5.50;5.00;;;;;22.47;48.18;101686.09;5080905;28;45496;-71
2022/02/02 11:09:47;;;;;;;;;6.25;5.00;;;;;22.38;46.62;101678.34;5065554;28;45580;-70
2022/02/02 11:12:13;;;;;;;;;9.50;7.00;;;;;22.30;46.26;101685.63;5063903;28;45303;-71
2022/02/02 11:15:16;;;;;;;;;7.50;6.00;;;;;22.19;45.91;101688.56;5047507;28;48004;-80
2022/02/02 11:20:45;;;;;;;;;7.00;5.75;;;;;21.99;45.81;101689.00;5052793;28;45353;-72
2022/02/02 11:23:26;;;;;;;;;6.25;5.00;;;;;21.95;45.11;101691.75;5062129;28;45489;-73
2022/02/02 11:26:30;;;;;;;;;;;;;;;;;;;;;
2022/02/02 11:28:56;;;;;;;;;5.50;4.75;;;;;21.71;45.11;101699.34;5041896;28;73511;-71
2022/02/02 11:31:24;;;;;;;;;5.75;3.25;;;;;21.65;44.86;101701.28;5091621;27;52993;-70
2022/02/02 11:34:01;;;;;;;;;;;;;;;;;;;;;
2022/02/02 11:36:52;;;;;;;;;;;;;;;;;;;;;
2022/02/02 11:39:45;;;;;;;;;3.50;3.00;;;;;21.43;44.49;101698.19;5060204;28;71726;-71
2022/02/02 11:45:40;;;;;;;;;4.25;3.50;;;;;21.24;45.13;101680.84;5072641;28;45417;-72
2022/02/02 11:48:13;;;;;;;;;3.50;3.00;;;;;21.25;44.98;101682.59;5043887;28;47201;-72
2022/02/02 11:51:06;;;;;;;;;4.75;4.00;;;;;21.22;44.35;101690.63;5075414;28;45251;-72
2022/02/02 11:53:50;;;;;;;;;3.50;3.50;;;;;21.21;45.18;101691.53;5060316;28;45503;-71
2022/02/02 11:56:30;;;;;;;;;4.75;3.00;;;;;21.20;44.90;101695.06;5080011;28;45313;-72
2022/02/02 11:58:56;;;;;;;;;3.75;3.75;;;;;21.16;44.53;101687.19;5060894;28;46824;-73
2022/02/02 12:01:45;;;;;;;;;3.00;2.00;;;;;21.16;44.77;101684.53;5061275;28;45593;-72
2022/02/02 12:04:37;;;;;;;;;4.25;4.25;;;;;21.09;44.81;101687.31;5058944;28;45421;-72
2022/02/02 12:07:07;;;;;;;;;6.25;4.00;;;;;21.08;45.01;101691.75;5062945;28;45338;-73
2022/02/02 12:09:45;;;;;;;;;3.75;3.75;;;;;21.09;44.78;101697.94;5080751;27;45405;-73
2022/02/02 12:21:29;;;;;;;;;5.00;4.00;;;;;21.10;44.51;101689.94;5053277;28;45884;-73
2022/02/02 12:48:46;;;;;;;;;5.00;5.00;;;;;20.95;44.13;101666.38;5080602;27;45427;-73
2022/02/02 12:57:10;;;;;;;;;3.00;3.00;;;;;20.94;44.09;101664.63;5059891;28;45310;-73
2022/02/02 13:02:14;;;;;;;;;3.25;3.00;;;;;20.96;44.23;101673.44;5043260;28;45386;-74
2022/02/02 13:04:41;;;;;;;;;4.25;3.00;;;;;20.96;43.72;101659.28;5051674;28;48014;-75
2022/02/02 13:07:16;;;;;;;;;2.75;2.50;;;;;20.96;44.19;101652.19;5044402;28;45339;-72
2022/02/02 13:09:43;;;;;;;;;3.75;3.00;;;;;20.94;44.09;101647.78;5078906;28;45479;-72
2022/02/02 13:12:24;;;;;;;;;4.00;3.00;;;;;20.98;43.82;101654.81;5058657;28;45604;-73
2022/02/02 13:17:56;;;;;;;;;3.75;2.00;;;;;20.97;43.71;101661.91;5073539;28;45296;-73
2022/02/02 13:23:39;;;;;;;;;2.25;2.25;;;;;20.92;44.12;101666.41;5074826;28;45367;-73
2022/02/02 13:26:06;;;;;;;;;4.50;3.25;;;;;20.91;43.87;101658.47;5078230;28;46670;-73
2022/02/02 13:29:14;;;;;;;;;4.75;3.25;;;;;20.89;44.17;101654.09;5065239;27;45382;-73
2022/02/02 13:37:49;;;;;;;;;3.25;3.00;;;;;20.90;44.13;101660.25;5059800;28;45218;-71
2022/02/02 13:48:44;;;;;;;;;6.00;4.50;;;;;20.92;44.10;101658.44;5062516;28;45295;-72
2022/02/02 13:59:06;;;;;;;;;5.25;3.00;;;;;20.95;43.81;101657.53;5062217;28;45994;-72
2022/02/02 14:07:14;;;;;;;;;5.00;4.50;;;;;20.93;43.63;101662.84;5061658;28;45415;-72
2022/02/02 14:31:16;;;;;;;;;4.00;3.00;;;;;20.84;43.34;101652.41;5081659;28;45723;-73
2022/02/02 14:33:45;;;;;;;;;3.50;3.00;;;;;20.83;43.33;101650.66;5064875;28;45353;-73
2022/02/02 14:36:12;;;;;;;;;3.00;3.00;;;;;20.85;43.80;101660.38;5046417;28;45304;-72
2022/02/02 14:41:14;;;;;;;;;2.00;2.00;;;;;20.88;42.65;101662.06;5076680;28;45423;-73
2022/02/02 14:46:16;;;;;;;;;3.75;3.75;;;;;20.88;42.92;101670.91;5060924;28;45390;-73
2022/02/02 14:48:51;;;;;;;;;2.00;2.00;;;;;20.88;42.85;101670.03;5056537;28;45484;-73
2022/02/02 14:54:14;;;;;;;;;3.25;3.25;;;;;20.86;42.53;101667.41;5066559;28;45456;-73
2022/02/02 15:24:03;;;;;;;;;3.00;2.75;;;;;20.73;42.28;101655.28;5080779;28;46292;-75
2022/02/02 15:29:18;;;;;;;;;4.25;2.75;;;;;20.69;42.65;101668.63;5066453;28;45375;-75
2022/02/02 15:31:44;;;;;;;;;5.25;4.00;;;;;20.67;42.83;101668.63;5064569;28;45320;-75
2022/02/02 15:34:15;;;;;;;;;3.75;3.75;;;;;20.70;42.45;101673.91;5043827;28;47508;-74
2022/02/02 15:39:23;;;;;;;;;7.00;6.00;;;;;20.70;42.71;101679.22;5062143;28;45223;-74
2022/02/02 16:03:12;;;;;;;;;14.00;14.00;;;;;20.72;44.33;101652.66;5045948;28;45451;-76
2022/02/02 16:08:07;;;;;;;;;31.25;30.75;;;;;20.73;45.42;101649.97;5063416;28;45362;-76
2022/02/02 16:10:45;;;;;;;;;22.50;19.50;;;;;20.76;44.28;101646.38;5063224;28;45398;-76
2022/02/02 16:13:27;;;;;;;;;28.00;22.75;;;;;20.76;44.30;101656.97;5049425;28;45856;-76
2022/02/02 16:16:04;;;;;;;;;28.50;24.75;;;;;20.72;44.50;101650.00;5064894;28;46703;-75
2022/02/02 16:36:39;;;;;;;;;13.25;7.75;;;;;20.75;43.71;101645.50;5077866;28;45304;-76
2022/02/02 16:39:12;;;;;;;;;4.50;4.00;;;;;20.74;43.05;101634.91;5079971;28;45676;-75
2022/02/02 16:44:22;;;;;;;;;7.75;6.00;;;;;20.77;42.83;101630.44;5065188;28;45468;-80
2022/02/02 16:46:55;;;;;;;;;10.00;7.00;;;;;20.77;43.14;101626.91;5042290;28;45293;-74
2022/02/02 16:50:07;;;;;;;;;8.00;7.00;;;;;20.85;43.18;101638.25;5076704;28;46019;-76
2022/02/02 16:52:34;;;;;;;;;7.50;7.25;;;;;20.81;42.58;101625.94;5078621;27;45430;-77
2022/02/02 16:55:28;;;;;;;;;;;;;;;;;;;;;
2022/02/02 16:58:09;;;;;;;;;7.25;6.75;;;;;20.84;44.46;101618.78;5063182;28;72975;-79
2022/02/02 17:24:38;;;;;;;;;11.50;8.00;;;;;21.58;45.62;101615.53;5054969;28;45453;-76
2022/02/02 17:29:56;;;;;;;;;7.00;7.00;;;;;21.73;46.77;101627.59;5062288;28;45295;-75
2022/02/02 17:35:33;;;;;;;;;10.25;8.00;;;;;21.83;46.60;101626.47;5044636;28;45764;-86
2022/02/02 17:38:09;;;;;;;;;7.00;6.25;;;;;21.86;46.88;101631.72;5059588;28;45491;-79
2022/02/02 17:40:48;;;;;;;;;8.75;8.75;;;;;21.92;46.99;101633.34;5050386;28;45483;-75
2022/02/02 18:01:59;;;;;;;;;;;;;;;;;;;;;
2022/02/02 18:20:43;;;;;;;;;7.00;7.00;;;;;22.24;47.03;101644.13;5068250;28;45327;-80
2022/02/02 18:50:18;;;;;;;;;12.25;10.00;;;;;22.28;47.37;101628.97;5051747;28;45259;-75
2022/02/02 18:58:30;;;;;;;;;8.75;7.00;;;;;22.34;46.78;101626.16;5046622;28;45325;-80
2022/02/02 19:01:11;;;;;;;;;11.25;8.25;;;;;22.36;46.46;101637.63;5046775;28;45170;-78
2022/02/02 19:55:23;;;;;;;;;18.75;15.50;;;;;22.36;45.75;101626.97;5056209;28;45252;-76
2022/02/02 20:06:02;;;;;;;;;23.50;20.75;;;;;22.38;45.22;101622.50;5078580;28;45250;-81
2022/02/02 20:08:43;;;;;;;;;23.50;20.00;;;;;22.37;45.20;101622.53;5082584;27;47190;-83
2022/02/02 20:11:15;;;;;;;;;23.50;19.50;;;;;22.37;45.08;101625.19;5080328;28;45431;-79
2022/02/02 20:13:41;;;;;;;;;13.00;10.00;;;;;22.38;45.08;101624.28;5079951;28;45366;-81
2022/02/02 20:16:06;;;;;;;;;25.25;22.00;;;;;22.38;45.02;101630.47;5063296;28;45489;-81
2022/02/02 20:18:36;;;;;;;;;20.50;18.75;;;;;22.38;44.96;101635.78;5062845;28;45417;-83
2022/02/02 20:21:08;;;;;;;;;23.50;18.75;;;;;22.40;45.42;101644.59;5080733;27;45413;-78
2022/02/02 20:23:39;;;;;;;;;23.25;19.25;;;;;22.39;45.44;101645.50;5045077;27;45395;-82
2022/02/02 20:26:06;;;;;;;;;17.25;17.00;;;;;22.40;45.51;101647.25;5071877;28;45491;-85
2022/02/02 20:28:31;;;;;;;;;18.25;18.00;;;;;22.38;44.85;101641.09;5075888;27;48011;-76
2022/02/02 20:30:57;;;;;;;;;16.75;16.25;;;;;22.39;44.99;101642.84;5073475;28;45484;-76
2022/02/02 20:33:22;;;;;;;;;17.00;16.00;;;;;22.39;45.15;101639.31;5079597;28;53444;-84
2022/02/02 20:35:48;;;;;;;;;17.00;14.50;;;;;22.40;45.59;101657.91;5062800;28;45545;-73
2022/02/02 20:38:13;;;;;;;;;19.75;16.00;;;;;22.42;46.95;101652.56;5080972;27;45533;-83
2022/02/02 20:40:39;;;;;;;;;14.25;12.25;;;;;22.42;46.55;101645.44;5079379;28;49553;-84
2022/02/02 20:43:11;;;;;;;;;16.00;13.25;;;;;22.43;46.08;101641.88;5062872;28;45448;-82
2022/02/02 21:07:50;;;;;;;;;15.25;13.00;;;;;22.46;46.85;101636.47;5060483;28;45592;-83
2022/02/02 21:10:18;;;;;;;;;12.25;12.25;;;;;22.45;47.18;101637.38;5058947;28;45513;-78
2022/02/02 21:15:31;;;;;;;;;17.00;14.25;;;;;22.50;47.18;101637.25;5065290;28;45482;-81
2022/02/02 21:18:04;;;;;;;;;13.75;13.75;;;;;22.46;46.75;101627.63;5041487;28;45367;-83
2022/02/02 21:20:35;;;;;;;;;20.50;16.25;;;;;22.49;47.53;101624.88;5059792;28;48107;-79
2022/02/02 21:23:10;;;;;;;;;23.25;20.50;;;;;22.50;47.56;101629.28;5066231;28;45497;-81
2022/02/02 21:25:49;;;;;;;;;24.00;20.00;;;;;22.49;47.16;101631.06;5065210;27;45510;-79
2022/02/02 21:28:17;;;;;;;;;24.50;21.00;;;;;22.52;47.31;101627.47;5065574;27;45270;-83
2022/02/02 21:30:44;;;;;;;;;27.75;21.75;;;;;22.49;47.18;101616.88;5045429;28;46995;-82
2022/02/02 21:33:14;;;;;;;;;25.50;22.25;;;;;22.48;47.12;101623.13;5045948;28;45527;-82
2022/02/02 21:35:42;;;;;;;;;23.00;21.50;;;;;22.50;47.15;101615.97;5062850;28;45240;-83
2022/02/02 21:38:17;;;;;;;;;23.00;19.50;;;;;22.50;48.10;101619.53;5079263;28;45343;-81
2022/02/02 21:40:52;;;;;;;;;26.75;22.00;;;;;22.49;47.09;101614.22;5047824;28;48295;-88
2022/02/02 21:43:28;;;;;;;;;22.50;21.00;;;;;22.51;47.39;101615.94;5045427;28;45263;-85
2022/02/02 21:45:57;;;;;;;;;22.50;19.00;;;;;22.47;46.89;101608.06;5066463;28;45546;-82
2022/02/02 21:48:41;;;;;;;;;26.25;23.50;;;;;22.47;46.83;101605.41;5050377;28;45358;-84
2022/02/02 21:51:09;;;;;;;;;27.00;21.75;;;;;22.43;47.30;101601.97;5039783;28;46858;-87
2022/02/02 21:53:35;;;;;;;;;28.00;21.75;;;;;22.48;46.76;101609.81;5045967;28;45173;-87
2022/02/02 21:56:00;;;;;;;;;24.00;22.00;;;;;22.47;47.26;101603.63;5046913;28;45234;-87
2022/02/02 21:58:25;;;;;;;;;26.25;21.00;;;;;22.45;47.01;101600.13;5076795;28;45591;-86
2022/02/02 22:00:51;;;;;;;;;24.00;21.50;;;;;22.50;47.19;101607.97;5065524;28;45365;-84
2022/02/02 22:03:17;;;;;;;;;21.75;21.75;;;;;22.52;46.72;101604.41;5082836;28;45209;-86
2022/02/02 22:05:42;;;;;;;;;30.50;25.25;;;;;22.48;46.52;101596.53;5082379;28;45355;-81
2022/02/02 22:08:18;;;;;;;;;25.25;21.25;;;;;22.46;46.97;101593.91;5065339;28;45441;-81
2022/02/02 22:10:54;;;;;;;;;23.00;19.00;;;;;22.51;46.79;101596.47;5082198;28;45481;-82
2022/02/02 22:13:22;;;;;;;;;22.00;21.25;;;;;22.48;46.51;101593.84;5082254;28;45745;-82
2022/02/02 22:15:54;;;;;;;;;23.00;20.00;;;;;22.46;46.56;101587.72;5046210;28;45364;-81
2022/02/02 22:18:45;;;;;;;;;24.00;21.25;;;;;22.52;46.83;101609.72;5041991;28;45414;-85
2022/02/02 22:21:10;;;;;;;;;24.75;18.00;;;;;22.51;46.88;101607.97;5071517;28;45291;-84
2022/02/02 22:23:38;;;;;;;;;17.50;16.75;;;;;22.49;46.30;101591.16;5047701;28;58294;-84
2022/02/02 22:26:03;;;;;;;;;20.75;17.50;;;;;22.41;46.93;101581.63;5045404;28;45438;-84
2022/02/02 22:28:31;;;;;;;;;22.50;20.00;;;;;22.48;46.83;101593.84;5060288;28;45474;-85
2022/02/02 22:30:56;;;;;;;;;20.50;18.50;;;;;22.43;46.61;101586.03;5045263;28;46945;-84
2022/02/02 22:33:24;;;;;;;;;21.00;19.25;;;;;22.46;46.61;101585.94;5057675;28;45725;-86
2022/02/02 22:35:50;;;;;;;;;21.00;18.75;;;;;22.47;46.67;101593.00;5028333;28;45289;-85
2022/02/02 22:38:15;;;;;;;;;22.75;17.75;;;;;22.53;46.99;101602.59;5043399;28;45437;-86
2022/02/02 22:47:05;;;;;;;;;17.50;16.50;;;;;22.44;46.35;101582.44;5026070;28;45297;-86
2022/02/02 22:49:32;;;;;;;;;18.50;15.25;;;;;22.50;46.44;101595.59;5053431;28;45534;-86
2022/02/02 22:52:08;;;;;;;;;21.50;19.25;;;;;22.49;46.44;101582.31;5081329;28;45417;-86
2022/02/02 22:54:33;;;;;;;;;20.50;17.00;;;;;22.49;46.33;101582.31;5048048;28;45295;-86
2022/02/02 22:56:59;;;;;;;;;19.00;15.25;;;;;22.48;45.86;101584.09;5047906;28;45324;-86
2022/02/02 22:59:24;;;;;;;;;12.25;7.00;;;;;22.50;46.53;101579.63;5064092;28;47673;-86